sensor_id;sensor_type;location;lat;lon;timestamp;pressure;altitude;pressure_sealevel;temperature;humidity
16255;BME280;8235;52.198;9.904;2023-05-13T00:02:21;101216.59;;;12.83;76.28
16255;BME280;8235;52.198;9.904;2023-05-13T00:04:47;101221.09;;;12.82;76.44
16255;BME280;8235;52.198;9.904;2023-05-13T00:07:14;101223.84;;;12.81;76.66
16255;BME280;8235;52.198;9.904;2023-05-13T00:09:40;101213.34;;;12.78;76.53
16255;BME280;8235;52.198;9.904;2023-05-13T00:12:07;101215.34;;;12.74;76.67
16255;BME280;8235;52.198;9.904;2023-05-13T00:14:34;101212.03;;;12.71;76.79
16255;BME280;8235;52.198;9.904;2023-05-13T00:17:02;101212.13;;;12.69;76.85
16255;BME280;8235;52.198;9.904;2023-05-13T00:19:29;101213.38;;;12.64;76.50
16255;BME280;8235;52.198;9.904;2023-05-13T00:21:56;101222.72;;;12.57;76.54
16255;BME280;8235;52.198;9.904;2023-05-13T00:24:22;101213.38;;;12.49;76.95
16255;BME280;8235;52.198;9.904;2023-05-13T00:26:48;101216.31;;;12.45;77.01
16255;BME280;8235;52.198;9.904;2023-05-13T00:29:15;101212.13;;;12.41;77.57
16255;BME280;8235;52.198;9.904;2023-05-13T00:31:41;101209.63;;;12.38;78.03
16255;BME280;8235;52.198;9.904;2023-05-13T00:34:09;101214.25;;;12.36;78.19
16255;BME280;8235;52.198;9.904;2023-05-13T00:36:36;101224.16;;;12.34;78.01
16255;BME280;8235;52.198;9.904;2023-05-13T00:39:02;101218.91;;;12.32;78.43
16255;BME280;8235;52.198;9.904;2023-05-13T00:41:29;101216.41;;;12.29;78.00
16255;BME280;8235;52.198;9.904;2023-05-13T00:43:55;101214.88;;;12.25;78.49
16255;BME280;8235;52.198;9.904;2023-05-13T00:46:22;101220.41;;;12.22;78.03
16255;BME280;8235;52.198;9.904;2023-05-13T00:48:49;101222.53;;;12.17;78.26
16255;BME280;8235;52.198;9.904;2023-05-13T00:51:17;101224.50;;;12.13;78.40
16255;BME280;8235;52.198;9.904;2023-05-13T00:53:44;101227.38;;;12.10;78.52
16255;BME280;8235;52.198;9.904;2023-05-13T00:56:10;101220.41;;;12.08;78.86
16255;BME280;8235;52.198;9.904;2023-05-13T00:58:38;101228.59;;;12.05;79.00
16255;BME280;8235;52.198;9.904;2023-05-13T01:01:12;101227.03;;;12.01;78.93
16255;BME280;8235;52.198;9.904;2023-05-13T01:03:47;101217.63;;;11.95;78.86
16255;BME280;8235;52.198;9.904;2023-05-13T01:06:20;101223.41;;;11.88;79.19
16255;BME280;8235;52.198;9.904;2023-05-13T01:08:56;101225.47;;;11.82;79.83
16255;BME280;8235;52.198;9.904;2023-05-13T01:11:26;101226.63;;;11.78;79.93
16255;BME280;8235;52.198;9.904;2023-05-13T01:14:09;101225.06;;;11.74;80.42
16255;BME280;8235;52.198;9.904;2023-05-13T01:16:39;101231.59;;;11.69;80.47
16255;BME280;8235;52.198;9.904;2023-05-13T01:19:17;101224.72;;;11.65;80.93
16255;BME280;8235;52.198;9.904;2023-05-13T01:21:52;101229.41;;;11.61;81.00
16255;BME280;8235;52.198;9.904;2023-05-13T01:24:19;101234.91;;;11.58;81.18
16255;BME280;8235;52.198;9.904;2023-05-13T01:26:45;101226.31;;;11.53;81.34
16255;BME280;8235;52.198;9.904;2023-05-13T01:29:12;101224.75;;;11.49;81.49
16255;BME280;8235;52.198;9.904;2023-05-13T01:31:39;101229.50;;;11.44;81.25
16255;BME280;8235;52.198;9.904;2023-05-13T01:34:07;101229.69;;;11.41;81.69
16255;BME280;8235;52.198;9.904;2023-05-13T01:36:35;101224.53;;;11.38;82.06
16255;BME280;8235;52.198;9.904;2023-05-13T01:41:33;101231.91;;;11.33;82.48
16255;BME280;8235;52.198;9.904;2023-05-13T01:43:59;101236.47;;;11.31;82.37
16255;BME280;8235;52.198;9.904;2023-05-13T01:46:26;101232.28;;;11.27;82.30
16255;BME280;8235;52.198;9.904;2023-05-13T01:48:52;101238.75;;;11.23;82.29
16255;BME280;8235;52.198;9.904;2023-05-13T01:51:19;101241.66;;;11.18;82.25
16255;BME280;8235;52.198;9.904;2023-05-13T01:53:45;101237.53;;;11.12;82.69
16255;BME280;8235;52.198;9.904;2023-05-13T01:56:11;101229.72;;;11.09;82.88
16255;BME280;8235;52.198;9.904;2023-05-13T01:58:39;101239.59;;;11.07;82.94
16255;BME280;8235;52.198;9.904;2023-05-13T02:01:06;101231.00;;;11.02;82.91
16255;BME280;8235;52.198;9.904;2023-05-13T02:03:32;101237.44;;;10.98;83.18
16255;BME280;8235;52.198;9.904;2023-05-13T02:05:59;101235.03;;;10.94;83.35
16255;BME280;8235;52.198;9.904;2023-05-13T02:08:25;101234.28;;;10.92;83.40
16255;BME280;8235;52.198;9.904;2023-05-13T02:10:55;101237.97;;;10.89;83.67
16255;BME280;8235;52.198;9.904;2023-05-13T02:13:21;101225.66;;;10.87;83.49
16255;BME280;8235;52.198;9.904;2023-05-13T02:15:49;101226.69;;;10.84;83.46
16255;BME280;8235;52.198;9.904;2023-05-13T02:18:15;101232.19;;;10.81;83.47
16255;BME280;8235;52.198;9.904;2023-05-13T02:20:42;101229.69;;;10.78;83.12
16255;BME280;8235;52.198;9.904;2023-05-13T02:23:09;101224.63;;;10.73;82.82
16255;BME280;8235;52.198;9.904;2023-05-13T02:25:36;101232.72;;;10.72;82.88
16255;BME280;8235;52.198;9.904;2023-05-13T02:28:03;101216.09;;;10.67;82.51
16255;BME280;8235;52.198;9.904;2023-05-13T02:30:29;101227.69;;;10.66;82.54
16255;BME280;8235;52.198;9.904;2023-05-13T02:32:57;101230.59;;;10.61;82.52
16255;BME280;8235;52.198;9.904;2023-05-13T02:35:23;101235.22;;;10.58;82.17
16255;BME280;8235;52.198;9.904;2023-05-13T02:37:53;101235.41;;;10.55;82.41
16255;BME280;8235;52.198;9.904;2023-05-13T02:40:20;101243.66;;;10.50;82.60
16255;BME280;8235;52.198;9.904;2023-05-13T02:42:46;101235.91;;;10.46;82.71
16255;BME280;8235;52.198;9.904;2023-05-13T02:45:13;101234.25;;;10.43;82.94
16255;BME280;8235;52.198;9.904;2023-05-13T02:47:39;101234.34;;;10.41;83.23
16255;BME280;8235;52.198;9.904;2023-05-13T02:50:07;101235.38;;;10.39;83.64
16255;BME280;8235;52.198;9.904;2023-05-13T02:52:36;101232.81;;;10.37;83.88
16255;BME280;8235;52.198;9.904;2023-05-13T02:55:06;101239.16;;;10.35;83.85
16255;BME280;8235;52.198;9.904;2023-05-13T02:57:32;101239.22;;;10.33;83.67
16255;BME280;8235;52.198;9.904;2023-05-13T02:59:59;101230.53;;;10.30;83.58
16255;BME280;8235;52.198;9.904;2023-05-13T03:02:26;101236.88;;;10.27;83.91
16255;BME280;8235;52.198;9.904;2023-05-13T03:04:53;101233.50;;;10.24;83.58
16255;BME280;8235;52.198;9.904;2023-05-13T03:07:22;101237.34;;;10.18;83.56
16255;BME280;8235;52.198;9.904;2023-05-13T03:09:49;101240.22;;;10.14;83.80
16255;BME280;8235;52.198;9.904;2023-05-13T03:12:16;101247.50;;;10.10;83.62
16255;BME280;8235;52.198;9.904;2023-05-13T03:14:42;101246.72;;;10.08;84.14
16255;BME280;8235;52.198;9.904;2023-05-13T03:17:09;101245.94;;;10.06;84.18
16255;BME280;8235;52.198;9.904;2023-05-13T03:19:36;101241.56;;;10.05;84.36
16255;BME280;8235;52.198;9.904;2023-05-13T03:22:04;101246.88;;;10.05;84.35
16255;BME280;8235;52.198;9.904;2023-05-13T03:24:32;101248.69;;;10.04;84.75
16255;BME280;8235;52.198;9.904;2023-05-13T03:26:59;101246.03;;;10.04;84.96
16255;BME280;8235;52.198;9.904;2023-05-13T03:29:25;101247.81;;;10.04;84.78
16255;BME280;8235;52.198;9.904;2023-05-13T03:31:52;101246.97;;;10.03;85.31
16255;BME280;8235;52.198;9.904;2023-05-13T03:34:19;101252.38;;;10.02;85.45
16255;BME280;8235;52.198;9.904;2023-05-13T03:36:45;101259.44;;;10.03;85.23
16255;BME280;8235;52.198;9.904;2023-05-13T03:39:12;101251.59;;;10.00;84.65
16255;BME280;8235;52.198;9.904;2023-05-13T03:41:40;101260.53;;;9.99;85.40
16255;BME280;8235;52.198;9.904;2023-05-13T03:44:06;101263.34;;;9.96;85.31
16255;BME280;8235;52.198;9.904;2023-05-13T03:46:32;101273.19;;;9.94;84.84
16255;BME280;8235;52.198;9.904;2023-05-13T03:48:59;101265.34;;;9.91;85.13
16255;BME280;8235;52.198;9.904;2023-05-13T03:51:25;101269.03;;;9.88;85.13
16255;BME280;8235;52.198;9.904;2023-05-13T03:53:52;101270.84;;;9.88;86.12
16255;BME280;8235;52.198;9.904;2023-05-13T03:56:18;101275.28;;;9.87;85.91
16255;BME280;8235;52.198;9.904;2023-05-13T03:58:47;101268.16;;;9.88;86.19
16255;BME280;8235;52.198;9.904;2023-05-13T04:01:13;101282.34;;;9.88;86.73
16255;BME280;8235;52.198;9.904;2023-05-13T04:03:39;101279.75;;;9.87;86.77
16255;BME280;8235;52.198;9.904;2023-05-13T04:06:08;101274.59;;;9.84;86.88
16255;BME280;8235;52.198;9.904;2023-05-13T04:08:34;101273.75;;;9.83;86.99
16255;BME280;8235;52.198;9.904;2023-05-13T04:11:01;101275.63;;;9.81;87.24
16255;BME280;8235;52.198;9.904;2023-05-13T04:13:27;101276.56;;;9.80;87.40
16255;BME280;8235;52.198;9.904;2023-05-13T04:15:55;101284.53;;;9.80;87.81
16255;BME280;8235;52.198;9.904;2023-05-13T04:18:22;101280.16;;;9.79;87.52
16255;BME280;8235;52.198;9.904;2023-05-13T04:20:48;101277.50;;;9.79;87.67
16255;BME280;8235;52.198;9.904;2023-05-13T04:23:15;101281.88;;;9.80;87.93
16255;BME280;8235;52.198;9.904;2023-05-13T04:25:41;101276.47;;;9.82;88.68
16255;BME280;8235;52.198;9.904;2023-05-13T04:28:08;101280.69;;;9.86;88.72
16255;BME280;8235;52.198;9.904;2023-05-13T04:30:34;101285.84;;;9.89;89.04
16255;BME280;8235;52.198;9.904;2023-05-13T04:33:02;101279.53;;;9.91;89.22
16255;BME280;8235;52.198;9.904;2023-05-13T04:35:28;101280.31;;;9.93;89.54
16255;BME280;8235;52.198;9.904;2023-05-13T04:37:55;101282.91;;;9.95;88.85
16255;BME280;8235;52.198;9.904;2023-05-13T04:40:21;101291.75;;;9.95;89.18
16255;BME280;8235;52.198;9.904;2023-05-13T04:42:48;101286.50;;;9.94;89.54
16255;BME280;8235;52.198;9.904;2023-05-13T04:45:18;101288.22;;;9.95;89.75
16255;BME280;8235;52.198;9.904;2023-05-13T04:47:45;101288.22;;;9.95;90.41
16255;BME280;8235;52.198;9.904;2023-05-13T04:50:12;101287.22;;;9.97;90.84
16255;BME280;8235;52.198;9.904;2023-05-13T04:52:39;101290.66;;;9.99;90.67
16255;BME280;8235;52.198;9.904;2023-05-13T04:55:08;101288.78;;;10.01;91.37
16255;BME280;8235;52.198;9.904;2023-05-13T04:57:34;101288.59;;;10.04;91.43
16255;BME280;8235;52.198;9.904;2023-05-13T05:00:01;101299.09;;;10.07;92.18
16255;BME280;8235;52.198;9.904;2023-05-13T05:02:28;101302.47;;;10.11;92.64
16255;BME280;8235;52.198;9.904;2023-05-13T05:04:55;101314.69;;;10.15;92.45
16255;BME280;8235;52.198;9.904;2023-05-13T05:07:22;101311.00;;;10.18;93.14
16255;BME280;8235;52.198;9.904;2023-05-13T05:09:49;101303.75;;;10.21;93.17
16255;BME280;8235;52.198;9.904;2023-05-13T05:12:17;101300.84;;;10.26;93.79
16255;BME280;8235;52.198;9.904;2023-05-13T05:14:43;101298.03;;;10.29;93.67
16255;BME280;8235;52.198;9.904;2023-05-13T05:17:10;101301.41;;;10.32;93.18
16255;BME280;8235;52.198;9.904;2023-05-13T05:19:36;101307.50;;;10.34;92.79
16255;BME280;8235;52.198;9.904;2023-05-13T05:22:03;101298.44;;;10.38;92.46
16255;BME280;8235;52.198;9.904;2023-05-13T05:24:32;101304.50;;;10.40;91.80
16255;BME280;8235;52.198;9.904;2023-05-13T05:26:59;101305.13;;;10.46;90.81
16255;BME280;8235;52.198;9.904;2023-05-13T05:29:26;101310.22;;;10.50;90.28
16255;BME280;8235;52.198;9.904;2023-05-13T05:31:52;101311.53;;;10.59;89.55
16255;BME280;8235;52.198;9.904;2023-05-13T05:34:19;101307.53;;;10.67;88.96
16255;BME280;8235;52.198;9.904;2023-05-13T05:36:45;101320.44;;;10.75;88.00
16255;BME280;8235;52.198;9.904;2023-05-13T05:39:12;101319.88;;;10.86;87.79
16255;BME280;8235;52.198;9.904;2023-05-13T05:41:39;101318.41;;;10.96;87.49
16255;BME280;8235;52.198;9.904;2023-05-13T05:44:06;101323.03;;;11.09;86.76
16255;BME280;8235;52.198;9.904;2023-05-13T05:46:33;101322.25;;;11.23;85.66
16255;BME280;8235;52.198;9.904;2023-05-13T05:48:59;101336.53;;;11.38;84.85
16255;BME280;8235;52.198;9.904;2023-05-13T05:51:27;101327.66;;;11.53;84.63
16255;BME280;8235;52.198;9.904;2023-05-13T05:53:54;101328.53;;;11.69;84.00
16255;BME280;8235;52.198;9.904;2023-05-13T05:56:20;101328.34;;;11.88;83.21
16255;BME280;8235;52.198;9.904;2023-05-13T05:58:48;101323.84;;;12.04;81.85
16255;BME280;8235;52.198;9.904;2023-05-13T06:01:14;101327.31;;;12.21;81.05
16255;BME280;8235;52.198;9.904;2023-05-13T06:03:41;101315.84;;;12.34;79.52
16255;BME280;8235;52.198;9.904;2023-05-13T06:06:07;101321.09;;;12.50;78.32
16255;BME280;8235;52.198;9.904;2023-05-13T06:08:34;101318.53;;;12.63;76.56
16255;BME280;8235;52.198;9.904;2023-05-13T06:11:00;101317.78;;;12.75;75.29
16255;BME280;8235;52.198;9.904;2023-05-13T06:13:26;101317.81;;;12.89;75.14
16255;BME280;8235;52.198;9.904;2023-05-13T06:15:54;101315.03;;;13.05;74.15
16255;BME280;8235;52.198;9.904;2023-05-13T06:18:21;101322.09;;;13.20;74.04
16255;BME280;8235;52.198;9.904;2023-05-13T06:20:47;101308.03;;;13.31;72.17
16255;BME280;8235;52.198;9.904;2023-05-13T06:23:14;101324.03;;;13.45;72.16
16255;BME280;8235;52.198;9.904;2023-05-13T06:25:41;101324.22;;;13.56;70.99
16255;BME280;8235;52.198;9.904;2023-05-13T06:28:09;101319.78;;;13.69;70.28
16255;BME280;8235;52.198;9.904;2023-05-13T06:30:36;101320.69;;;13.82;69.55
16255;BME280;8235;52.198;9.904;2023-05-13T06:33:04;101326.22;;;13.94;70.30
16255;BME280;8235;52.198;9.904;2023-05-13T06:35:32;101329.97;;;14.04;69.99
16255;BME280;8235;52.198;9.904;2023-05-13T06:37:58;101325.94;;;14.11;68.76
16255;BME280;8235;52.198;9.904;2023-05-13T06:40:25;101324.25;;;14.22;68.75
16255;BME280;8235;52.198;9.904;2023-05-13T06:42:51;101325.34;;;14.33;68.15
16255;BME280;8235;52.198;9.904;2023-05-13T06:45:18;101324.44;;;14.46;69.06
16255;BME280;8235;52.198;9.904;2023-05-13T06:47:47;101322.19;;;14.66;69.02
16255;BME280;8235;52.198;9.904;2023-05-13T06:50:15;101321.97;;;14.81;67.64
16255;BME280;8235;52.198;9.904;2023-05-13T06:52:42;101318.53;;;14.92;66.62
16255;BME280;8235;52.198;9.904;2023-05-13T06:55:09;101323.03;;;15.04;65.99
16255;BME280;8235;52.198;9.904;2023-05-13T06:57:35;101318.50;;;15.17;65.98
16255;BME280;8235;52.198;9.904;2023-05-13T07:00:05;101325.97;;;15.25;65.16
16255;BME280;8235;52.198;9.904;2023-05-13T07:02:31;101315.78;;;15.30;64.14
16255;BME280;8235;52.198;9.904;2023-05-13T07:04:57;101319.63;;;15.39;64.29
16255;BME280;8235;52.198;9.904;2023-05-13T07:07:25;101321.31;;;15.52;64.98
16255;BME280;8235;52.198;9.904;2023-05-13T07:09:52;101328.38;;;15.66;64.64
16255;BME280;8235;52.198;9.904;2023-05-13T07:12:18;101319.38;;;15.78;64.21
16255;BME280;8235;52.198;9.904;2023-05-13T07:14:45;101317.53;;;15.91;64.22
16255;BME280;8235;52.198;9.904;2023-05-13T07:17:11;101321.00;;;16.05;63.34
16255;BME280;8235;52.198;9.904;2023-05-13T07:19:37;101323.72;;;16.16;63.46
16255;BME280;8235;52.198;9.904;2023-05-13T07:22:04;101321.69;;;16.30;63.83
16255;BME280;8235;52.198;9.904;2023-05-13T07:24:32;101315.16;;;16.46;62.96
16255;BME280;8235;52.198;9.904;2023-05-13T07:26:58;101318.47;;;16.60;63.05
16255;BME280;8235;52.198;9.904;2023-05-13T07:29:25;101320.84;;;16.76;62.68
16255;BME280;8235;52.198;9.904;2023-05-13T07:31:51;101314.25;;;16.91;61.67
16255;BME280;8235;52.198;9.904;2023-05-13T07:34:18;101308.84;;;17.02;60.77
16255;BME280;8235;52.198;9.904;2023-05-13T07:36:44;101307.75;;;17.05;59.73
16255;BME280;8235;52.198;9.904;2023-05-13T07:39:11;101305.31;;;17.13;59.80
16255;BME280;8235;52.198;9.904;2023-05-13T07:41:39;101310.81;;;17.23;59.83
16255;BME280;8235;52.198;9.904;2023-05-13T07:44:05;101306.78;;;17.28;59.12
16255;BME280;8235;52.198;9.904;2023-05-13T07:46:35;101308.88;;;17.36;59.08
16255;BME280;8235;52.198;9.904;2023-05-13T07:49:02;101316.53;;;17.41;58.65
16255;BME280;8235;52.198;9.904;2023-05-13T07:51:31;101312.38;;;17.48;59.13
16255;BME280;8235;52.198;9.904;2023-05-13T07:53:57;101306.09;;;17.58;59.87
16255;BME280;8235;52.198;9.904;2023-05-13T07:56:24;101306.84;;;17.72;59.43
16255;BME280;8235;52.198;9.904;2023-05-13T07:58:51;101315.63;;;17.85;59.30
16255;BME280;8235;52.198;9.904;2023-05-13T08:01:18;101309.69;;;18.02;59.01
16255;BME280;8235;52.198;9.904;2023-05-13T08:03:44;101312.44;;;18.12;57.71
16255;BME280;8235;52.198;9.904;2023-05-13T08:06:11;101316.34;;;18.19;57.40
16255;BME280;8235;52.198;9.904;2023-05-13T08:08:37;101317.53;;;18.26;56.90
16255;BME280;8235;52.198;9.904;2023-05-13T08:11:04;101316.88;;;18.33;56.92
16255;BME280;8235;52.198;9.904;2023-05-13T08:13:30;101309.13;;;18.40;55.61
16255;BME280;8235;52.198;9.904;2023-05-13T08:16:00;101313.72;;;18.49;55.94
16255;BME280;8235;52.198;9.904;2023-05-13T08:18:28;101311.97;;;18.59;55.68
16255;BME280;8235;52.198;9.904;2023-05-13T08:20:54;101317.41;;;18.69;55.19
16255;BME280;8235;52.198;9.904;2023-05-13T08:23:21;101312.47;;;18.74;55.47
16255;BME280;8235;52.198;9.904;2023-05-13T08:25:48;101309.94;;;18.82;55.04
16255;BME280;8235;52.198;9.904;2023-05-13T08:28:14;101308.31;;;18.91;54.80
16255;BME280;8235;52.198;9.904;2023-05-13T08:30:40;101299.53;;;18.98;54.43
16255;BME280;8235;52.198;9.904;2023-05-13T08:33:10;101298.84;;;19.06;54.16
16255;BME280;8235;52.198;9.904;2023-05-13T08:35:36;101303.59;;;19.14;52.87
16255;BME280;8235;52.198;9.904;2023-05-13T08:38:03;101310.72;;;19.24;53.28
16255;BME280;8235;52.198;9.904;2023-05-13T08:40:30;101309.47;;;19.28;52.32
16255;BME280;8235;52.198;9.904;2023-05-13T08:42:59;101309.91;;;19.33;51.79
16255;BME280;8235;52.198;9.904;2023-05-13T08:45:27;101313.88;;;19.39;50.93
16255;BME280;8235;52.198;9.904;2023-05-13T08:47:55;101312.50;;;19.45;51.33
16255;BME280;8235;52.198;9.904;2023-05-13T08:50:24;101315.38;;;19.53;51.10
16255;BME280;8235;52.198;9.904;2023-05-13T08:52:51;101309.44;;;19.68;51.39
16255;BME280;8235;52.198;9.904;2023-05-13T08:55:18;101307.31;;;19.82;51.39
16255;BME280;8235;52.198;9.904;2023-05-13T08:57:45;101301.19;;;19.89;50.73
16255;BME280;8235;52.198;9.904;2023-05-13T09:00:13;101304.34;;;19.94;49.85
16255;BME280;8235;52.198;9.904;2023-05-13T09:02:41;101309.78;;;20.04;50.02
16255;BME280;8235;52.198;9.904;2023-05-13T09:05:08;101309.47;;;20.17;50.60
16255;BME280;8235;52.198;9.904;2023-05-13T09:07:37;101314.44;;;20.31;49.92
16255;BME280;8235;52.198;9.904;2023-05-13T09:10:05;101308.91;;;20.42;50.29
16255;BME280;8235;52.198;9.904;2023-05-13T09:12:42;101300.34;;;20.47;49.21
16255;BME280;8235;52.198;9.904;2023-05-13T09:15:10;101303.19;;;20.55;49.29
16255;BME280;8235;52.198;9.904;2023-05-13T09:17:38;101299.75;;;20.62;49.61
16255;BME280;8235;52.198;9.904;2023-05-13T09:20:07;101301.16;;;20.66;49.56
16255;BME280;8235;52.198;9.904;2023-05-13T09:22:34;101311.66;;;20.79;50.94
16255;BME280;8235;52.198;9.904;2023-05-13T09:25:02;101300.97;;;20.87;50.14
16255;BME280;8235;52.198;9.904;2023-05-13T09:27:35;101311.06;;;20.95;50.38
16255;BME280;8235;52.198;9.904;2023-05-13T09:30:02;101299.63;;;21.01;49.95
16255;BME280;8235;52.198;9.904;2023-05-13T09:32:29;101310.16;;;21.04;49.36
16255;BME280;8235;52.198;9.904;2023-05-13T09:34:56;101291.63;;;21.09;50.17
16255;BME280;8235;52.198;9.904;2023-05-13T09:37:23;101301.53;;;21.18;50.71
16255;BME280;8235;52.198;9.904;2023-05-13T09:39:51;101302.28;;;21.20;50.45
16255;BME280;8235;52.198;9.904;2023-05-13T09:42:19;101297.56;;;21.22;49.69
16255;BME280;8235;52.198;9.904;2023-05-13T09:44:46;101301.28;;;21.21;48.95
16255;BME280;8235;52.198;9.904;2023-05-13T09:47:13;101298.56;;;21.21;49.64
16255;BME280;8235;52.198;9.904;2023-05-13T09:49:41;101293.56;;;21.26;49.67
16255;BME280;8235;52.198;9.904;2023-05-13T09:52:08;101296.56;;;21.23;48.46
16255;BME280;8235;52.198;9.904;2023-05-13T09:54:36;101293.84;;;21.23;48.98
16255;BME280;8235;52.198;9.904;2023-05-13T09:57:03;101295.56;;;21.24;48.23
16255;BME280;8235;52.198;9.904;2023-05-13T09:59:32;101298.28;;;21.24;47.69
16255;BME280;8235;52.198;9.904;2023-05-13T10:01:59;101293.16;;;21.21;47.24
16255;BME280;8235;52.198;9.904;2023-05-13T10:04:26;101292.00;;;21.24;47.85
16255;BME280;8235;52.198;9.904;2023-05-13T10:06:54;101292.69;;;21.26;47.48
16255;BME280;8235;52.198;9.904;2023-05-13T10:09:21;101293.63;;;21.34;48.18
16255;BME280;8235;52.198;9.904;2023-05-13T10:11:48;101296.59;;;21.41;47.89
16255;BME280;8235;52.198;9.904;2023-05-13T10:14:15;101294.31;;;21.46;48.12
16255;BME280;8235;52.198;9.904;2023-05-13T10:16:43;101289.09;;;21.53;47.62
16255;BME280;8235;52.198;9.904;2023-05-13T10:19:12;101289.22;;;21.61;48.80
16255;BME280;8235;52.198;9.904;2023-05-13T10:21:39;101283.19;;;21.67;48.41
16255;BME280;8235;52.198;9.904;2023-05-13T10:24:06;101280.16;;;21.70;47.47
16255;BME280;8235;52.198;9.904;2023-05-13T10:26:34;101279.38;;;21.77;46.74
16255;BME280;8235;52.198;9.904;2023-05-13T10:29:01;101274.97;;;21.76;45.80
16255;BME280;8235;52.198;9.904;2023-05-13T10:31:29;101276.66;;;21.77;45.09
16255;BME280;8235;52.198;9.904;2023-05-13T10:33:57;101277.53;;;21.78;44.05
16255;BME280;8235;52.198;9.904;2023-05-13T10:36:37;101280.84;;;21.72;42.23
16255;BME280;8235;52.198;9.904;2023-05-13T10:39:21;101281.16;;;21.69;42.75
16255;BME280;8235;52.198;9.904;2023-05-13T10:42:29;101284.41;;;21.72;43.13
16255;BME280;8235;52.198;9.904;2023-05-13T10:45:00;101284.34;;;21.82;43.25
16255;BME280;8235;52.198;9.904;2023-05-13T10:47:30;101281.16;;;21.87;42.22
16255;BME280;8235;52.198;9.904;2023-05-13T10:49:58;101279.28;;;21.87;42.38
16255;BME280;8235;52.198;9.904;2023-05-13T10:52:40;101280.69;;;21.91;42.56
16255;BME280;8235;52.198;9.904;2023-05-13T10:55:14;101277.84;;;21.93;41.84
16255;BME280;8235;52.198;9.904;2023-05-13T10:57:40;101277.97;;;21.91;41.36
16255;BME280;8235;52.198;9.904;2023-05-13T11:00:11;101280.84;;;21.90;40.72
16255;BME280;8235;52.198;9.904;2023-05-13T11:02:38;101278.63;;;21.85;39.97
16255;BME280;8235;52.198;9.904;2023-05-13T11:05:07;101271.81;;;21.81;40.44
16255;BME280;8235;52.198;9.904;2023-05-13T11:07:36;101278.78;;;21.83;41.75
16255;BME280;8235;52.198;9.904;2023-05-13T11:10:04;101275.44;;;21.90;42.01
16255;BME280;8235;52.198;9.904;2023-05-13T11:13:19;101279.53;;;21.94;41.53
16255;BME280;8235;52.198;9.904;2023-05-13T11:15:48;101277.97;;;21.91;41.62
16255;BME280;8235;52.198;9.904;2023-05-13T11:18:15;101279.06;;;21.98;43.29
16255;BME280;8235;52.198;9.904;2023-05-13T11:20:46;101281.56;;;22.09;43.05
16255;BME280;8235;52.198;9.904;2023-05-13T11:23:17;101278.56;;;22.12;42.58
16255;BME280;8235;52.198;9.904;2023-05-13T11:25:43;101271.41;;;22.11;42.44
16255;BME280;8235;52.198;9.904;2023-05-13T11:28:13;101274.84;;;22.13;42.01
16255;BME280;8235;52.198;9.904;2023-05-13T11:30:40;101273.81;;;22.14;39.73
16255;BME280;8235;52.198;9.904;2023-05-13T11:33:06;101277.53;;;22.13;39.52
16255;BME280;8235;52.198;9.904;2023-05-13T11:35:36;101276.06;;;22.19;40.32
16255;BME280;8235;52.198;9.904;2023-05-13T11:38:04;101267.81;;;22.29;40.54
16255;BME280;8235;52.198;9.904;2023-05-13T11:40:31;101274.50;;;22.34;40.48
16255;BME280;8235;52.198;9.904;2023-05-13T11:42:59;101264.19;;;22.38;41.05
16255;BME280;8235;52.198;9.904;2023-05-13T11:45:26;101270.97;;;22.42;40.47
16255;BME280;8235;52.198;9.904;2023-05-13T11:47:54;101265.53;;;22.42;40.55
16255;BME280;8235;52.198;9.904;2023-05-13T11:50:22;101261.97;;;22.41;40.18
16255;BME280;8235;52.198;9.904;2023-05-13T11:52:49;101268.25;;;22.42;40.25
16255;BME280;8235;52.198;9.904;2023-05-13T11:55:24;101269.81;;;22.44;40.93
16255;BME280;8235;52.198;9.904;2023-05-13T11:57:52;101271.19;;;22.48;39.94
16255;BME280;8235;52.198;9.904;2023-05-13T12:00:23;101263.06;;;22.48;39.51
16255;BME280;8235;52.198;9.904;2023-05-13T12:02:50;101264.59;;;22.51;39.42
16255;BME280;8235;52.198;9.904;2023-05-13T12:05:16;101266.34;;;22.60;40.52
16255;BME280;8235;52.198;9.904;2023-05-13T12:07:43;101254.84;;;22.66;39.87
16255;BME280;8235;52.198;9.904;2023-05-13T12:10:10;101260.66;;;22.71;38.92
16255;BME280;8235;52.198;9.904;2023-05-13T12:12:39;101249.84;;;22.79;38.97
16255;BME280;8235;52.198;9.904;2023-05-13T12:15:07;101255.19;;;22.89;38.06
16255;BME280;8235;52.198;9.904;2023-05-13T12:17:36;101246.91;;;22.99;38.45
16255;BME280;8235;52.198;9.904;2023-05-13T12:20:07;101256.81;;;23.08;38.30
16255;BME280;8235;52.198;9.904;2023-05-13T12:22:35;101254.59;;;23.11;36.95
16255;BME280;8235;52.198;9.904;2023-05-13T12:25:35;101256.81;;;23.08;36.85
16255;BME280;8235;52.198;9.904;2023-05-13T12:28:07;101256.28;;;23.12;36.95
16255;BME280;8235;52.198;9.904;2023-05-13T12:30:34;101246.81;;;23.16;36.56
16255;BME280;8235;52.198;9.904;2023-05-13T12:33:01;101249.03;;;23.21;35.71
16255;BME280;8235;52.198;9.904;2023-05-13T12:35:29;101248.22;;;23.29;35.93
16255;BME280;8235;52.198;9.904;2023-05-13T12:38:00;101247.22;;;23.38;35.52
16255;BME280;8235;52.198;9.904;2023-05-13T12:40:26;101238.25;;;23.45;35.89
16255;BME280;8235;52.198;9.904;2023-05-13T12:42:56;101244.41;;;23.56;35.48
16255;BME280;8235;52.198;9.904;2023-05-13T12:45:27;101246.31;;;23.63;34.13
16255;BME280;8235;52.198;9.904;2023-05-13T12:47:54;101242.03;;;23.61;34.01
16255;BME280;8235;52.198;9.904;2023-05-13T12:50:21;101247.16;;;23.64;34.86
16255;BME280;8235;52.198;9.904;2023-05-13T12:52:48;101243.41;;;23.73;35.00
16255;BME280;8235;52.198;9.904;2023-05-13T12:55:14;101237.81;;;23.82;35.59
16255;BME280;8235;52.198;9.904;2023-05-13T12:57:41;101236.59;;;23.85;34.33
16255;BME280;8235;52.198;9.904;2023-05-13T13:00:09;101242.56;;;23.88;34.76
16255;BME280;8235;52.198;9.904;2023-05-13T13:02:38;101234.41;;;23.97;35.27
16255;BME280;8235;52.198;9.904;2023-05-13T13:05:05;101232.88;;;24.02;33.83
16255;BME280;8235;52.198;9.904;2023-05-13T13:07:32;101237.47;;;24.02;32.31